Time;durP1;ratioP1;P1;durP2;ratioP2;P2;SDS_P1;SDS_P2;PMS_P1;PMS_P2;Temp;Humidity;BMP_temperature;BMP_pressure;BME280_temperature;BME280_humidity;BME280_pressure;Samples;Min_cycle;Max_cycle;Signal;HPM_P1;HPM_P2
2022/07/17 00:01:20;;;;;;;;;;;18.70;99.90;;;;;;21036902;28;20041;-77
2022/07/17 00:11:21;;;;;;;3.70;1.48;;;18.90;99.90;;;;;;21017284;28;19912;-77
2022/07/17 00:21:22;;;;;;;4.50;1.33;;;18.80;99.90;;;;;;20989431;28;20039;-77
2022/07/17 00:31:22;;;;;;;4.97;1.90;;;18.50;99.90;;;;;;20931161;28;20124;-78
2022/07/17 00:41:23;;;;;;;5.87;1.57;;;18.40;99.90;;;;;;20983642;28;20033;-78
2022/07/17 00:51:24;;;;;;;10.23;1.67;;;18.20;99.90;;;;;;20984441;28;20044;-79
2022/07/17 01:01:25;;;;;;;2.10;1.50;;;18.00;99.90;;;;;;20992353;28;20025;-78
2022/07/17 01:11:26;;;;;;;4.93;1.63;;;18.00;99.90;;;;;;21022118;28;20045;-78
2022/07/17 01:21:41;;;;;;;2.63;1.67;;;17.40;99.90;;;;;;21029406;28;20499;-78
2022/07/17 01:31:42;;;;;;;4.85;1.77;;;17.40;99.90;;;;;;21008999;28;20032;-77
2022/07/17 01:41:43;;;;;;;4.57;1.90;;;17.50;99.90;;;;;;21030889;28;20033;-78
2022/07/17 01:51:43;;;;;;;4.03;2.63;;;17.50;99.90;;;;;;21031031;28;20067;-78
2022/07/17 02:01:44;;;;;;;3.00;1.83;;;17.60;99.90;;;;;;21030780;28;20044;-78
2022/07/17 02:11:45;;;;;;;2.67;1.70;;;17.30;99.90;;;;;;21019301;28;20043;-76
2022/07/17 02:21:46;;;;;;;3.20;1.60;;;17.40;99.90;;;;;;21011196;28;20554;-77
2022/07/17 02:31:47;;;;;;;2.50;1.60;;;17.60;99.90;;;;;;21033623;28;20044;-78
2022/07/17 02:41:48;;;;;;;2.83;1.50;;;17.50;99.90;;;;;;21016675;28;20032;-78
2022/07/17 02:51:49;;;;;;;3.40;1.93;;;17.40;99.90;;;;;;21012714;28;20037;-79
2022/07/17 03:01:49;;;;;;;4.43;1.63;;;17.40;99.90;;;;;;21021299;28;20044;-78
2022/07/17 03:11:50;;;;;;;2.37;1.80;;;17.40;99.90;;;;;;21002367;28;20050;-77
2022/07/17 03:21:51;;;;;;;5.03;2.00;;;17.40;99.90;;;;;;21013097;28;20040;-78
2022/07/17 03:31:52;;;;;;;4.07;2.07;;;17.30;99.90;;;;;;21003582;28;20043;-78
2022/07/17 03:41:53;;;;;;;3.47;2.00;;;17.20;99.90;;;;;;20998425;28;20040;-77
2022/07/17 03:51:53;;;;;;;3.07;2.00;;;17.10;99.90;;;;;;20999973;28;20039;-77
2022/07/17 04:01:54;;;;;;;4.53;2.20;;;17.10;99.90;;;;;;21012422;28;20124;-79
2022/07/17 04:11:55;;;;;;;5.00;1.93;;;17.00;99.90;;;;;;21009942;28;20041;-79
2022/07/17 04:21:56;;;;;;;2.27;1.93;;;17.00;99.90;;;;;;21013562;28;20497;-78
2022/07/17 04:31:56;;;;;;;8.50;2.10;;;16.50;99.90;;;;;;21003050;28;20094;-78
2022/07/17 04:41:57;;;;;;;4.27;2.13;;;16.50;99.90;;;;;;21011161;28;20064;-78
2022/07/17 04:51:58;;;;;;;2.83;2.00;;;15.90;99.90;;;;;;21010759;28;20071;-79
2022/07/17 05:01:59;;;;;;;4.03;2.03;;;16.00;99.90;;;;;;21007630;28;20064;-78
2022/07/17 05:12:00;;;;;;;3.27;1.80;;;16.40;99.90;;;;;;21000779;28;20076;-78
2022/07/17 05:22:02;;;;;;;3.30;1.90;;;16.70;99.90;;;;;;21008974;28;20548;-81
2022/07/17 05:32:04;;;;;;;4.22;2.33;;;17.00;99.90;;;;;;20991760;28;20040;-78
2022/07/17 05:42:04;;;;;;;;;;;17.50;99.90;;;;;;20993999;28;20404;-78
2022/07/17 05:52:05;;;;;;;5.13;2.20;;;17.70;99.90;;;;;;20997018;28;19912;-78
2022/07/17 06:02:06;;;;;;;7.50;2.13;;;18.00;99.90;;;;;;20999544;28;20106;-77
2022/07/17 06:12:07;;;;;;;5.00;2.00;;;18.20;99.90;;;;;;20930823;22;20053;-76
2022/07/17 06:22:08;;;;;;;4.03;1.90;;;18.70;99.90;;;;;;20834419;28;20073;-74
2022/07/17 06:32:09;;;;;;;4.87;1.70;;;19.20;99.90;;;;;;20796222;28;20042;-74
2022/07/17 06:42:10;;;;;;;2.77;1.90;;;20.00;99.90;;;;;;20809847;28;20561;-76
2022/07/17 06:52:11;;;;;;;3.75;1.70;;;20.50;99.90;;;;;;20832832;28;20045;-74
2022/07/17 07:02:12;;;;;;;3.70;1.70;;;21.20;99.90;;;;;;20834330;28;20036;-75
2022/07/17 07:12:13;;;;;;;6.87;2.23;;;21.90;99.90;;;;;;20832324;28;20045;-75
2022/07/17 07:22:13;;;;;;;4.37;1.63;;;22.60;99.90;;;;;;20834862;28;20030;-78
2022/07/17 07:32:14;;;;;;;5.33;1.80;;;23.20;99.90;;;;;;20848440;28;20064;-74
2022/07/17 07:42:15;;;;;;;2.33;1.63;;;23.90;99.90;;;;;;20831320;28;20112;-73
2022/07/17 07:52:16;;;;;;;2.80;1.67;;;24.60;99.80;;;;;;20842672;28;20124;-78
2022/07/17 08:02:17;;;;;;;;;;;24.50;99.90;;;;;;20837044;28;20105;-78
2022/07/17 08:12:17;;;;;;;2.33;1.50;;;25.10;98.00;;;;;;20815324;28;19924;-78
2022/07/17 08:22:18;;;;;;;;;;;25.30;97.20;;;;;;20802903;28;20284;-78
2022/07/17 08:32:19;;;;;;;4.70;1.17;;;26.50;95.60;;;;;;20793381;28;19917;-77
2022/07/17 08:42:20;;;;;;;6.63;1.23;;;26.50;97.10;;;;;;20791607;28;20496;-78
2022/07/17 08:52:21;;;;;;;7.43;1.48;;;27.00;95.90;;;;;;20766053;28;20104;-79
2022/07/17 09:02:22;;;;;;;2.13;1.50;;;27.80;94.80;;;;;;20768328;28;20030;-77
2022/07/17 09:12:27;;;;;;;2.00;1.42;;;27.90;94.30;;;;;;20805232;28;20103;-75
2022/07/17 09:22:28;;;;;;;3.58;1.50;;;28.40;93.80;;;;;;20806658;28;20041;-76
2022/07/17 09:32:41;;;;;;;2.92;1.40;;;28.50;92.60;;;;;;20802351;28;20049;-75
2022/07/17 09:42:44;;;;;;;2.47;1.13;;;29.20;92.80;;;;;;20816100;28;20055;-75
2022/07/17 09:52:47;;;;;;;4.85;1.23;;;29.70;91.40;;;;;;20818892;28;20080;-74
2022/07/17 10:02:48;;;;;;;1.90;1.23;;;29.80;92.00;;;;;;20791670;28;20038;-74
2022/07/17 10:12:51;;;;;;;1.35;1.15;;;30.30;90.70;;;;;;20765959;28;20045;-75
2022/07/17 10:22:51;;;;;;;4.57;1.52;;;30.70;90.90;;;;;;20813641;28;20037;-75
2022/07/17 10:32:56;;;;;;;2.42;1.30;;;29.70;92.20;;;;;;20793598;28;20046;-74
2022/07/17 10:43:02;;;;;;;3.80;1.30;;;31.30;90.00;;;;;;20811716;28;20037;-75
2022/07/17 10:53:17;;;;;;;3.92;1.83;;;31.90;88.80;;;;;;20752392;28;20119;-73
2022/07/17 11:03:18;;;;;;;3.13;1.20;;;32.00;90.60;;;;;;20772869;28;20575;-74
2022/07/17 11:13:18;;;;;;;1.63;1.15;;;32.50;89.60;;;;;;20813179;28;20570;-75
2022/07/17 11:23:22;;;;;;;5.82;1.50;;;32.50;87.20;;;;;;20812420;28;20141;-74
2022/07/17 11:33:23;;;;;;;3.65;1.30;;;32.80;86.40;;;;;;20783650;28;20041;-76
2022/07/17 11:43:24;;;;;;;4.05;1.38;;;33.10;83.00;;;;;;20807618;28;20041;-74
2022/07/17 11:53:36;;;;;;;1.27;1.10;;;33.30;83.50;;;;;;20807102;28;20061;-75
2022/07/17 12:03:37;;;;;;;3.38;1.10;;;33.20;83.90;;;;;;20805412;28;20049;-75
2022/07/17 12:13:44;;;;;;;1.70;1.27;;;33.70;85.00;;;;;;20803909;28;20734;-76
2022/07/17 12:23:56;;;;;;;3.35;1.20;;;33.00;84.40;;;;;;20802033;28;20045;-76
2022/07/17 12:33:56;;;;;;;3.67;1.00;;;33.50;82.00;;;;;;20803136;28;20033;-75
2022/07/17 12:43:57;;;;;;;2.27;1.47;;;34.10;80.20;;;;;;20788844;28;20044;-76
2022/07/17 12:53:58;;;;;;;2.38;0.98;;;33.00;80.30;;;;;;20935654;22;20398;-75
2022/07/17 13:03:59;;;;;;;1.55;0.95;;;33.80;75.70;;;;;;20903362;28;20448;-76
2022/07/17 13:14:01;;;;;;;2.15;1.10;;;34.30;76.80;;;;;;20883482;28;20160;-75
2022/07/17 13:24:02;;;;;;;2.05;1.10;;;33.70;77.60;;;;;;20878161;28;20824;-76
2022/07/17 13:34:03;;;;;;;3.13;1.00;;;34.60;75.80;;;;;;20878792;28;20037;-74
2022/07/17 13:44:05;;;;;;;3.30;0.98;;;33.90;74.40;;;;;;20895598;28;20124;-75
2022/07/17 13:54:06;;;;;;;4.18;0.93;;;33.70;75.60;;;;;;20905083;28;20501;-75
2022/07/17 14:04:07;;;;;;;2.67;1.10;;;33.60;75.70;;;;;;20905729;28;20041;-75
2022/07/17 14:14:08;;;;;;;2.15;1.38;;;33.80;76.90;;;;;;20905640;28;20029;-76
2022/07/17 14:24:09;;;;;;;2.17;1.40;;;33.50;73.30;;;;;;20892271;28;20045;-75
2022/07/17 14:34:10;;;;;;;5.80;1.23;;;32.50;74.50;;;;;;20935564;28;20041;-75
2022/07/17 14:44:12;;;;;;;1.42;1.10;;;33.40;73.80;;;;;;20919289;28;20496;-76
2022/07/17 14:54:12;;;;;;;3.25;1.35;;;33.60;72.30;;;;;;20918449;28;20037;-75
2022/07/17 15:04:13;;;;;;;2.75;1.38;;;33.80;70.40;;;;;;20917730;28;20033;-75
2022/07/17 15:14:14;;;;;;;1.90;1.23;;;33.30;71.90;;;;;;20893436;28;20033;-75
2022/07/17 15:24:15;;;;;;;1.60;1.00;;;32.70;71.50;;;;;;20879398;28;20053;-74
2022/07/17 15:34:16;;;;;;;5.75;1.40;;;33.00;69.60;;;;;;20868089;28;20731;-74
2022/07/17 15:44:16;;;;;;;2.22;1.30;;;33.20;68.70;;;;;;20867888;28;20561;-75
2022/07/17 15:54:17;;;;;;;4.85;1.15;;;33.00;70.70;;;;;;20910134;28;20575;-75
2022/07/17 16:04:18;;;;;;;3.65;1.50;;;32.00;70.00;;;;;;20908975;28;20511;-75
2022/07/17 16:14:19;;;;;;;6.05;1.30;;;32.10;70.70;;;;;;20907111;28;20063;-75
2022/07/17 16:24:21;;;;;;;5.38;1.35;;;31.90;70.70;;;;;;20908970;28;20405;-75
2022/07/17 16:34:22;;;;;;;3.85;1.20;;;31.50;72.40;;;;;;20905330;28;20037;-75
2022/07/17 16:44:23;;;;;;;4.20;2.03;;;31.30;72.30;;;;;;20910511;28;20053;-76
2022/07/17 16:54:24;;;;;;;3.13;2.00;;;31.40;72.30;;;;;;20894446;28;20512;-76
2022/07/17 17:04:24;;;;;;;3.08;1.55;;;31.20;71.80;;;;;;20910128;28;20033;-78
2022/07/17 17:14:25;;;;;;;3.67;1.40;;;31.00;70.30;;;;;;20914839;28;20128;-75
2022/07/17 17:24:26;;;;;;;6.18;2.00;;;30.50;72.10;;;;;;20868704;28;20049;-75
2022/07/17 17:34:27;;;;;;;5.13;2.00;;;30.30;72.20;;;;;;20889099;28;20086;-75
2022/07/17 17:44:28;;;;;;;2.47;1.27;;;30.30;70.20;;;;;;20859023;28;20041;-77
2022/07/17 17:54:29;;;;;;;4.07;1.20;;;30.20;72.20;;;;;;20908567;28;20048;-76
2022/07/17 18:04:30;;;;;;;2.65;1.30;;;30.30;75.30;;;;;;20932812;28;20041;-77
2022/07/17 18:14:31;;;;;;;1.90;1.02;;;31.20;75.00;;;;;;20943659;28;20045;-78
2022/07/17 18:24:32;;;;;;;3.95;1.52;;;32.20;74.60;;;;;;20919866;28;20112;-77
2022/07/17 18:34:33;;;;;;;2.55;1.75;;;30.30;79.40;;;;;;20934494;28;20037;-77
2022/07/17 18:44:35;;;;;;;3.80;1.42;;;29.10;82.00;;;;;;20884480;28;20110;-77
2022/07/17 18:54:36;;;;;;;4.13;1.58;;;27.70;88.70;;;;;;20967383;22;20056;-76
2022/07/17 19:04:37;;;;;;;3.75;1.50;;;26.50;90.60;;;;;;20999529;28;20482;-77
2022/07/17 19:14:40;;;;;;;2.30;1.50;;;25.90;89.90;;;;;;20998088;28;20048;-77
2022/07/17 19:24:41;;;;;;;2.85;1.35;;;26.00;88.40;;;;;;20998550;28;20050;-77
2022/07/17 19:34:42;;;;;;;;;;;25.60;88.30;;;;;;20997760;28;20033;-77
2022/07/17 19:44:43;;;;;;;2.20;1.52;;;25.50;87.60;;;;;;20995535;28;19912;-77
2022/07/17 19:54:44;;;;;;;;;;;24.70;90.20;;;;;;20995034;28;20047;-77
2022/07/17 20:04:45;;;;;;;1.92;1.50;;;24.30;90.50;;;;;;20976314;28;19986;-77
2022/07/17 20:14:46;;;;;;;2.97;1.40;;;24.00;90.80;;;;;;20992848;28;20090;-77
2022/07/17 20:24:47;;;;;;;2.30;1.42;;;23.80;91.10;;;;;;20991092;28;20111;-77
2022/07/17 20:34:48;;;;;;;2.63;1.50;;;23.80;90.80;;;;;;20972136;28;20064;-77
2022/07/17 20:44:49;;;;;;;2.97;1.73;;;23.60;91.60;;;;;;20971149;28;20796;-76
2022/07/17 20:54:49;;;;;;;4.37;1.50;;;23.00;92.60;;;;;;20988569;28;20700;-76
2022/07/17 21:04:50;;;;;;;4.77;1.93;;;22.70;92.40;;;;;;20988109;28;20025;-77
2022/07/17 21:14:51;;;;;;;2.17;1.40;;;22.40;93.80;;;;;;20988348;28;20287;-77
2022/07/17 21:24:54;;;;;;;2.03;1.40;;;22.00;94.40;;;;;;20988242;28;20032;-77
2022/07/17 21:34:55;;;;;;;4.60;2.15;;;21.80;95.00;;;;;;20986892;28;20040;-77
2022/07/17 21:44:56;;;;;;;4.27;1.90;;;20.70;97.30;;;;;;20969474;28;20475;-76
2022/07/17 21:54:57;;;;;;;2.90;1.73;;;20.20;98.60;;;;;;20986901;28;20454;-77
2022/07/17 22:04:58;;;;;;;2.10;1.83;;;19.50;99.40;;;;;;20968678;28;20043;-77
2022/07/17 22:14:59;;;;;;;3.23;2.23;;;19.40;99.90;;;;;;20969906;28;20049;-77
2022/07/17 22:25:00;;;;;;;3.80;2.20;;;19.00;99.90;;;;;;20987546;28;20040;-77
2022/07/17 22:35:02;;;;;;;2.60;1.80;;;18.80;99.90;;;;;;20987148;28;20639;-77
2022/07/17 22:45:04;;;;;;;2.40;2.00;;;19.30;99.90;;;;;;20991130;28;20032;-77
2022/07/17 22:55:05;;;;;;;3.63;2.13;;;19.30;99.90;;;;;;21000967;28;20510;-77
2022/07/17 23:05:07;;;;;;;3.25;2.00;;;19.20;99.90;;;;;;21000259;28;20060;-77
2022/07/17 23:15:08;;;;;;;4.55;2.95;;;19.00;99.90;;;;;;20999456;28;20043;-77
2022/07/17 23:25:09;;;;;;;6.95;2.25;;;18.30;99.90;;;;;;20981132;28;20044;-77
2022/07/17 23:35:10;;;;;;;3.73;1.73;;;18.00;99.90;;;;;;20980057;28;20136;-77
2022/07/17 23:45:11;;;;;;;3.33;2.10;;;17.80;99.90;;;;;;20979798;28;20109;-77
2022/07/17 23:55:12;;;;;;;2.93;1.97;;;17.50;99.90;;;;;;20996620;28;20495;-77
